If you wish to contribute or participate in the discussions about articles you are invited to join SKYbrary as a registered user

 Actions

Anvik Airport

From SKYbrary Wiki

PANV
Airport
ICAO: PANV – IATA: ANV
Summary
Name Anvik Airport
Region North America
Territory Alaska US.gif
Location , Alaska
Serving Anvik
Elevation 88.697 m
291 ft
291 ft88.697 m
Type medium airport
Coordinates 62° 38' 48.12" N, 160° 11' 27.60" W
Runways
Designator Length Width Surface ROPS
17/35 902 m2,959.318 ft
23 m75.459 ft
GVL /


METAR
Observation PANV 140303Z AUTO 00000KT 1/4SM FZFG OVC002 M21/M23 A2936 RMK AO2 FZRANO
Station Anvik, Anvik Airport
Date/Time 14 December 2018 03:03:00
Wind direction
Wind speed 00 kts
Lowest cloud amount overcast
Temperature
Dew point
Humidity 83%
QNH hPa
Weather condition freezing fog